createdAt,value
2019-04-03T00:00:06.388Z,9.07
2019-04-03T00:02:35.204Z,8.20
2019-04-03T00:05:05.733Z,8.13
2019-04-03T00:07:35.925Z,7.97
2019-04-03T00:10:08.146Z,7.73
2019-04-03T00:12:40.328Z,8.90
2019-04-03T00:15:08.037Z,7.87
2019-04-03T00:17:36.853Z,7.87
2019-04-03T00:20:07.803Z,8.63
2019-04-03T00:22:37.968Z,8.47
2019-04-03T00:25:07.807Z,8.63
2019-04-03T00:27:36.556Z,7.77
2019-04-03T00:30:09.078Z,8.63
2019-04-03T00:32:37.981Z,8.80
2019-04-03T00:35:08.139Z,7.80
2019-04-03T00:37:36.964Z,8.87
2019-04-03T00:40:08.838Z,8.60
2019-04-03T00:42:37.629Z,9.57
2019-04-03T00:45:07.298Z,9.67
2019-04-03T00:47:36.196Z,8.47
2019-04-03T00:50:09.171Z,8.80
2019-04-03T00:52:37.931Z,8.97
2019-04-03T00:55:06.780Z,9.13
2019-04-03T00:57:35.571Z,9.33
2019-04-03T01:00:07.354Z,9.63
2019-04-03T01:02:36.075Z,9.97
2019-04-03T01:05:06.381Z,8.73
2019-04-03T01:07:35.203Z,9.73
2019-04-03T01:10:04.734Z,9.33
2019-04-03T01:12:33.633Z,9.80
2019-04-03T01:15:02.579Z,8.77
2019-04-03T01:17:34.207Z,9.30
2019-04-03T01:20:01.889Z,8.97
2019-04-03T01:22:30.611Z,9.67
2019-04-03T01:24:59.578Z,8.93
2019-04-03T01:27:28.420Z,9.87
2019-04-03T01:29:57.252Z,9.17
2019-04-03T01:32:26.042Z,9.97
2019-04-03T01:34:54.924Z,9.70
2019-04-03T01:37:23.748Z,9.97
2019-04-03T01:39:52.583Z,9.93
2019-04-03T01:42:22.454Z,10.27
2019-04-03T01:44:51.980Z,10.77
2019-04-03T01:47:20.757Z,10.80
2019-04-03T01:49:49.548Z,10.23
2019-04-03T01:52:18.867Z,9.80
2019-04-03T01:54:47.695Z,10.40
2019-04-03T01:57:16.500Z,10.00
2019-04-03T01:59:45.244Z,10.00
2019-04-03T02:02:14.092Z,10.50
2019-04-03T02:04:43.080Z,11.10
2019-04-03T02:07:14.354Z,11.20
2019-04-03T02:09:42.351Z,10.13
2019-04-03T02:12:11.100Z,10.20
2019-04-03T02:14:39.967Z,10.60
2019-04-03T02:17:08.791Z,10.07
2019-04-03T02:19:37.547Z,10.27
2019-04-03T02:22:06.244Z,11.30
2019-04-03T02:24:35.060Z,9.53
2019-04-03T02:27:03.816Z,11.30
2019-04-03T02:29:32.618Z,10.23
2019-04-03T02:32:01.801Z,10.07
2019-04-03T02:34:33.723Z,9.93
2019-04-03T02:37:01.141Z,10.97
2019-04-03T02:39:29.987Z,10.70
2019-04-03T02:41:59.062Z,10.27
2019-04-03T02:44:28.120Z,11.17
2019-04-03T02:46:59.530Z,10.70
2019-04-03T02:49:27.428Z,10.00
2019-04-03T02:51:56.958Z,10.07
2019-04-03T02:54:34.767Z,10.40
2019-04-03T02:57:01.582Z,11.90
2019-04-03T02:59:30.336Z,10.83
2019-04-03T03:01:59.373Z,10.13
2019-04-03T03:04:28.358Z,10.50
2019-04-03T03:06:57.150Z,10.83
2019-04-03T03:09:27.367Z,11.47
2019-04-03T03:11:57.146Z,11.17
2019-04-03T03:14:26.437Z,10.83
2019-04-03T03:16:55.681Z,12.40
2019-04-03T03:19:24.646Z,10.90
2019-04-03T03:21:56.413Z,10.80
2019-04-03T03:24:28.293Z,10.23
2019-04-03T03:26:57.006Z,9.50
2019-04-03T03:29:27.542Z,11.33
2019-04-03T03:32:09.359Z,11.27
2019-04-03T03:34:48.042Z,10.73
2019-04-03T03:37:02.119Z,11.13
2019-04-03T03:39:29.474Z,10.77
2019-04-03T03:41:59.116Z,11.33
2019-04-03T03:44:28.835Z,11.57
2019-04-03T03:47:01.169Z,10.27
2019-04-03T03:49:29.960Z,11.07
2019-04-03T03:52:02.713Z,11.67
2019-04-03T03:54:30.829Z,11.47
2019-04-03T03:57:04.223Z,11.93
2019-04-03T03:59:30.615Z,11.87
2019-04-03T04:02:03.244Z,11.33
2019-04-03T04:04:30.671Z,11.43
2019-04-03T04:07:02.019Z,12.27
2019-04-03T04:09:30.927Z,12.53
2019-04-03T04:12:04.362Z,12.30
2019-04-03T04:14:31.735Z,11.50
2019-04-03T04:17:00.685Z,12.00
2019-04-03T04:19:30.843Z,11.80
2019-04-03T04:22:00.213Z,10.77
2019-04-03T04:24:29.159Z,11.20
2019-04-03T04:26:57.908Z,13.77
2019-04-03T04:29:26.749Z,11.43
2019-04-03T04:31:55.709Z,13.13
2019-04-03T04:34:24.892Z,13.30
2019-04-03T04:36:55.342Z,13.17
2019-04-03T04:39:24.039Z,13.60
2019-04-03T04:41:52.868Z,17.27
2019-04-03T04:44:21.700Z,16.67
2019-04-03T04:46:50.423Z,16.10
2019-04-03T04:49:20.678Z,14.57
2019-04-03T04:51:49.707Z,15.17
2019-04-03T04:54:18.441Z,17.40
2019-04-03T04:56:47.464Z,15.20
2019-04-03T04:59:16.204Z,14.90
2019-04-03T05:01:45.355Z,15.10
2019-04-03T05:04:16.002Z,13.80
2019-04-03T05:06:44.864Z,12.93
2019-04-03T05:09:13.622Z,13.77
2019-04-03T05:11:42.424Z,14.07
2019-04-03T05:14:11.123Z,14.80
2019-04-03T05:16:40.044Z,14.57
2019-04-03T05:19:14.739Z,14.00
2019-04-03T05:21:39.364Z,14.10
2019-04-03T05:24:12.638Z,17.00
2019-04-03T05:26:38.516Z,17.90
2019-04-03T05:29:07.474Z,17.50
2019-04-03T05:31:38.570Z,18.10
2019-04-03T05:34:06.795Z,20.70
2019-04-03T05:36:35.542Z,19.47
2019-04-03T05:39:07.018Z,16.93
2019-04-03T05:41:35.829Z,16.77
2019-04-03T05:44:04.650Z,15.27
2019-04-03T05:46:33.429Z,15.73
2019-04-03T05:49:02.302Z,15.27
2019-04-03T05:51:31.392Z,15.87
2019-04-03T05:54:00.290Z,15.37
2019-04-03T05:56:29.104Z,13.70
2019-04-03T05:59:01.289Z,15.77
2019-04-03T06:01:28.255Z,15.07
2019-04-03T06:03:57.085Z,16.13
2019-04-03T06:06:26.093Z,16.93
2019-04-03T06:08:56.560Z,16.67
2019-04-03T06:11:25.402Z,16.43
2019-04-03T06:13:54.143Z,15.07
2019-04-03T06:16:24.517Z,16.10
2019-04-03T06:18:53.484Z,16.97
2019-04-03T06:21:22.326Z,15.57
2019-04-03T06:23:52.723Z,15.90
2019-04-03T06:26:21.651Z,14.77
2019-04-03T06:28:50.404Z,13.77
2019-04-03T06:31:19.237Z,15.90
2019-04-03T06:33:50.911Z,15.13
2019-04-03T06:36:18.512Z,15.77
2019-04-03T06:38:47.236Z,14.53
2019-04-03T06:41:16.186Z,15.40
2019-04-03T06:43:45.044Z,16.33
2019-04-03T06:46:13.811Z,16.20
2019-04-03T06:48:42.742Z,15.50
2019-04-03T06:51:11.505Z,16.60
2019-04-03T06:53:40.324Z,15.23
2019-04-03T06:56:09.228Z,15.73
2019-04-03T06:58:40.055Z,16.50
2019-04-03T07:01:08.661Z,15.13
2019-04-03T07:03:37.508Z,16.93
2019-04-03T07:06:06.597Z,14.63
2019-04-03T07:08:38.084Z,14.73
2019-04-03T07:11:05.893Z,16.03
2019-04-03T07:13:34.684Z,15.07
2019-04-03T07:16:03.428Z,14.90
2019-04-03T07:18:32.284Z,15.23
2019-04-03T07:21:01.053Z,17.17
2019-04-03T07:23:30.271Z,15.07
2019-04-03T07:25:59.275Z,15.80
2019-04-03T07:28:30.222Z,14.33
2019-04-03T07:30:58.675Z,15.47
2019-04-03T07:33:28.664Z,15.33
2019-04-03T07:35:59.279Z,15.63
2019-04-03T07:38:27.980Z,15.20
2019-04-03T07:40:56.726Z,15.23
2019-04-03T07:43:26.872Z,15.10
2019-04-03T07:45:55.963Z,14.77
2019-04-03T07:48:25.082Z,15.30
2019-04-03T07:50:54.019Z,14.30
2019-04-03T07:53:23.089Z,14.47
2019-04-03T07:55:54.975Z,14.67
2019-04-03T07:58:25.110Z,16.40
2019-04-03T08:00:53.364Z,14.77
2019-04-03T08:03:22.212Z,14.10
2019-04-03T08:05:51.037Z,15.07
2019-04-03T08:08:20.031Z,15.07
2019-04-03T08:10:48.804Z,15.10
2019-04-03T08:13:17.636Z,14.67
2019-04-03T08:15:46.818Z,13.03
2019-04-03T08:18:15.566Z,14.10
2019-04-03T08:20:44.388Z,14.10
2019-04-03T08:23:13.261Z,14.40
2019-04-03T08:25:44.924Z,14.20
2019-04-03T08:28:12.453Z,13.73
2019-04-03T08:30:41.310Z,13.80
2019-04-03T08:33:15.826Z,13.47
2019-04-03T08:35:40.598Z,15.93
2019-04-03T08:38:11.007Z,13.37
2019-04-03T08:40:39.935Z,14.60
2019-04-03T08:43:09.087Z,13.93
2019-04-03T08:45:39.164Z,13.87
2019-04-03T08:48:08.222Z,13.57
2019-04-03T08:50:37.070Z,13.80
2019-04-03T08:53:07.967Z,13.17
2019-04-03T08:55:36.355Z,12.77
2019-04-03T08:58:05.194Z,13.17
2019-04-03T09:00:34.078Z,13.53
2019-04-03T09:03:04.078Z,12.90
2019-04-03T09:05:33.237Z,13.23
2019-04-03T09:08:02.143Z,13.93
2019-04-03T09:10:32.183Z,12.77
2019-04-03T09:13:01.444Z,13.47
2019-04-03T09:15:30.364Z,13.97
2019-04-03T09:17:59.423Z,12.23
2019-04-03T09:20:28.348Z,13.20
2019-04-03T09:22:57.212Z,12.57
2019-04-03T09:25:25.950Z,13.13
2019-04-03T09:27:55.035Z,12.63
2019-04-03T09:30:23.996Z,12.37
2019-04-03T09:32:53.682Z,13.27
2019-04-03T09:35:23.332Z,14.60
2019-04-03T09:37:52.248Z,13.50
2019-04-03T09:40:21.429Z,11.60
2019-04-03T09:42:51.551Z,13.53
2019-04-03T09:45:21.064Z,13.00
2019-04-03T09:47:50.188Z,12.10
2019-04-03T09:50:21.950Z,13.50
2019-04-03T09:52:50.652Z,13.77
2019-04-03T09:55:19.748Z,11.83
2019-04-03T09:57:48.897Z,12.27
2019-04-03T10:00:18.396Z,13.10
2019-04-03T10:02:48.839Z,11.50
2019-04-03T10:05:17.620Z,11.80
2019-04-03T10:07:47.068Z,12.70
2019-04-03T10:10:17.036Z,11.50
2019-04-03T10:12:48.007Z,11.90
2019-04-03T10:15:18.485Z,11.60
2019-04-03T10:17:47.578Z,13.07
2019-04-03T10:20:18.222Z,11.07
2019-04-03T10:22:47.422Z,10.60
2019-04-03T10:25:16.445Z,10.43
2019-04-03T10:27:45.572Z,10.67
2019-04-03T10:30:15.661Z,11.20
2019-04-03T10:32:44.624Z,11.87
2019-04-03T10:35:13.612Z,11.47
2019-04-03T10:37:45.601Z,10.60
2019-04-03T10:40:13.106Z,11.00
2019-04-03T10:42:41.939Z,11.30
2019-04-03T10:45:11.552Z,13.03
2019-04-03T10:47:43.710Z,11.37
2019-04-03T10:50:12.125Z,11.67
2019-04-03T10:52:43.978Z,11.20
2019-04-03T10:55:11.621Z,11.13
2019-04-03T10:57:40.656Z,11.63
2019-04-03T11:00:12.318Z,11.87
2019-04-03T11:02:41.132Z,11.93
2019-04-03T11:05:12.890Z,12.27
2019-04-03T11:07:41.703Z,10.87
2019-04-03T11:10:11.445Z,11.17
2019-04-03T11:12:40.267Z,12.50
2019-04-03T11:15:11.692Z,13.67
2019-04-03T11:17:40.948Z,13.83
2019-04-03T11:20:10.933Z,14.20
2019-04-03T11:22:42.149Z,14.10
2019-04-03T11:25:13.865Z,15.03
2019-04-03T11:27:44.095Z,15.23
2019-04-03T11:30:54.599Z,14.33
2019-04-03T11:32:45.158Z,14.13
2019-04-03T11:35:15.030Z,15.40
2019-04-03T11:37:44.251Z,14.67
2019-04-03T11:40:17.764Z,15.70
2019-04-03T11:42:45.839Z,15.37
2019-04-03T11:45:15.325Z,15.47
2019-04-03T11:47:46.177Z,13.93
2019-04-03T11:50:15.654Z,14.97
2019-04-03T11:52:44.557Z,14.77
2019-04-03T11:55:14.045Z,13.70
2019-04-03T11:57:43.033Z,14.20
2019-04-03T12:00:15.530Z,14.00
2019-04-03T12:02:44.793Z,14.23
2019-04-03T12:05:20.495Z,14.27
2019-04-03T12:07:47.584Z,13.63
2019-04-03T12:10:16.860Z,13.73
2019-04-03T12:12:45.965Z,13.70
2019-04-03T12:15:16.427Z,14.00
2019-04-03T12:17:45.561Z,15.10
2019-04-03T12:20:16.578Z,13.50
2019-04-03T12:22:45.645Z,13.57
2019-04-03T12:25:15.185Z,13.57
2019-04-03T12:27:46.056Z,12.37
2019-04-03T12:30:15.123Z,13.40
2019-04-03T12:32:48.746Z,12.87
2019-04-03T12:35:14.490Z,13.10
2019-04-03T12:37:43.636Z,11.67
2019-04-03T12:40:12.893Z,11.70
2019-04-03T12:42:41.772Z,12.43
2019-04-03T12:45:11.263Z,12.67
2019-04-03T12:47:42.989Z,12.20
2019-04-03T12:50:12.907Z,13.30
2019-04-03T12:52:44.003Z,11.03
2019-04-03T12:55:12.125Z,11.67
2019-04-03T12:57:41.004Z,11.00
2019-04-03T13:00:12.982Z,11.50
2019-04-03T13:02:42.478Z,12.13
2019-04-03T13:05:12.094Z,12.47
2019-04-03T13:07:40.959Z,11.17
2019-04-03T13:10:11.366Z,13.03
2019-04-03T13:12:40.255Z,12.87
2019-04-03T13:15:11.441Z,12.67
2019-04-03T13:17:43.236Z,13.10
2019-04-03T13:20:11.325Z,12.97
2019-04-03T13:22:42.559Z,12.67
2019-04-03T13:25:10.716Z,13.13
2019-04-03T13:27:39.773Z,13.43
2019-04-03T13:30:12.416Z,12.23
2019-04-03T13:32:40.858Z,13.17
2019-04-03T13:35:10.216Z,11.93
2019-04-03T13:37:39.032Z,13.60
2019-04-03T13:40:08.808Z,12.90
2019-04-03T13:42:38.031Z,12.73
2019-04-03T13:45:08.425Z,10.63
2019-04-03T13:47:39.729Z,12.80
2019-04-03T13:50:09.717Z,10.63
2019-04-03T13:52:42.302Z,10.67
2019-04-03T13:55:09.713Z,10.90
2019-04-03T13:57:38.702Z,11.47
2019-04-03T14:00:18.707Z,11.87
2019-04-03T14:02:40.002Z,10.93
2019-04-03T14:05:08.951Z,11.63
2019-04-03T14:07:40.570Z,11.37
2019-04-03T14:10:11.895Z,10.43
2019-04-03T14:12:44.158Z,10.43
2019-04-03T14:15:11.596Z,11.03
2019-04-03T14:17:40.423Z,10.93
2019-04-03T14:20:10.835Z,10.50
2019-04-03T14:22:39.733Z,11.53
2019-04-03T14:25:19.730Z,10.20
2019-04-03T14:27:39.553Z,9.37
2019-04-03T14:30:11.788Z,10.17
2019-04-03T14:32:41.190Z,10.93
2019-04-03T14:35:40.594Z,11.20
2019-04-03T14:37:42.263Z,10.23
2019-04-03T14:40:12.687Z,10.80
2019-04-03T14:42:42.168Z,10.23
2019-04-03T14:45:14.439Z,10.23
2019-04-03T14:47:42.021Z,10.93
2019-04-03T14:50:11.265Z,10.03
2019-04-03T14:52:40.189Z,11.33
2019-04-03T14:55:19.913Z,11.47
2019-04-03T14:57:39.605Z,10.43
2019-04-03T15:00:24.936Z,9.77
2019-04-03T15:02:41.496Z,10.13
2019-04-03T15:05:10.908Z,10.63
2019-04-03T15:07:40.387Z,11.33
2019-04-03T15:10:09.920Z,10.20
2019-04-03T15:12:39.971Z,10.47
2019-04-03T15:15:09.800Z,10.60
2019-04-03T15:17:38.915Z,11.00
2019-04-03T15:20:09.714Z,9.53
2019-04-03T15:22:39.319Z,11.13
2019-04-03T15:25:08.875Z,10.73
2019-04-03T15:27:38.241Z,11.87
2019-04-03T15:30:11.241Z,9.17
2019-04-03T15:32:40.159Z,10.70
2019-04-03T15:35:09.327Z,11.10
2019-04-03T15:37:40.842Z,9.80
2019-04-03T15:40:10.172Z,10.93
2019-04-03T15:42:41.296Z,8.83
2019-04-03T15:45:10.436Z,9.87
2019-04-03T15:47:44.984Z,10.10
2019-04-03T15:50:10.672Z,9.90
2019-04-03T15:52:39.550Z,9.27
2019-04-03T15:55:09.677Z,9.47
2019-04-03T15:57:39.955Z,10.00
2019-04-03T16:00:15.005Z,9.33
2019-04-03T16:02:45.684Z,9.57
2019-04-03T16:05:15.461Z,9.40
2019-04-03T16:07:44.947Z,9.90
2019-04-03T16:10:14.201Z,9.80
2019-04-03T16:12:43.989Z,9.93
2019-04-03T16:15:13.812Z,10.17
2019-04-03T16:17:43.182Z,9.97
2019-04-03T16:20:14.258Z,9.50
2019-04-03T16:22:43.870Z,9.27
2019-04-03T16:25:16.160Z,9.47
2019-04-03T16:27:43.402Z,9.93
2019-04-03T16:30:15.547Z,10.20
2019-04-03T16:32:43.455Z,9.60
2019-04-03T16:35:14.503Z,10.10
2019-04-03T16:37:43.807Z,9.90
2019-04-03T16:40:13.596Z,9.07
2019-04-03T16:42:43.252Z,9.30
2019-04-03T16:45:12.364Z,9.57
2019-04-03T16:47:44.083Z,9.63
2019-04-03T16:50:13.120Z,10.03
2019-04-03T16:52:42.319Z,9.07
2019-04-03T16:55:11.840Z,10.47
2019-04-03T16:57:40.825Z,10.63
2019-04-03T17:00:10.454Z,9.20
2019-04-03T17:02:39.344Z,9.17
2019-04-03T17:05:10.162Z,10.70
2019-04-03T17:07:39.304Z,10.10
2019-04-03T17:10:10.040Z,9.77
2019-04-03T17:12:38.725Z,11.03
2019-04-03T17:15:09.600Z,15.40
2019-04-03T17:17:39.187Z,16.47
2019-04-03T17:20:09.382Z,16.90
2019-04-03T17:22:40.748Z,16.10
2019-04-03T17:25:10.636Z,14.03
2019-04-03T17:27:39.494Z,26.83
2019-04-03T17:30:11.325Z,27.00
2019-04-03T17:32:40.196Z,20.53
2019-04-03T17:35:09.053Z,15.83
2019-04-03T17:37:38.432Z,11.10
2019-04-03T17:40:10.442Z,10.47
2019-04-03T17:42:40.162Z,11.20
2019-04-03T17:45:09.638Z,10.67
2019-04-03T17:47:38.461Z,9.70
2019-04-03T17:50:10.027Z,9.07
2019-04-03T17:52:38.965Z,9.40
2019-04-03T17:55:10.846Z,10.27
2019-04-03T17:57:39.925Z,8.83
2019-04-03T18:00:14.466Z,9.47
2019-04-03T18:02:43.228Z,9.87
2019-04-03T18:05:12.550Z,9.53
2019-04-03T18:07:41.478Z,9.03
2019-04-03T18:10:12.790Z,9.70
2019-04-03T18:12:41.316Z,8.27
2019-04-03T18:15:12.205Z,9.23
2019-04-03T18:17:41.076Z,9.63
2019-04-03T18:20:12.524Z,10.10
2019-04-03T18:22:41.165Z,9.07
2019-04-03T18:25:10.837Z,9.87
2019-04-03T18:27:39.667Z,9.33
2019-04-03T18:30:11.875Z,9.70
2019-04-03T18:32:40.509Z,10.77
2019-04-03T18:35:09.812Z,9.63
2019-04-03T18:37:40.835Z,9.47
2019-04-03T18:40:14.249Z,8.77
2019-04-03T18:42:41.415Z,9.80
2019-04-03T18:45:24.063Z,10.73
2019-04-03T18:47:45.822Z,8.93
2019-04-03T18:50:13.345Z,10.57
2019-04-03T18:52:42.391Z,10.10
2019-04-03T18:55:13.931Z,10.70
2019-04-03T18:57:43.301Z,9.77
2019-04-03T19:00:12.485Z,9.87
2019-04-03T19:02:41.333Z,10.23
2019-04-03T19:05:13.833Z,11.17
2019-04-03T19:07:40.823Z,9.50
2019-04-03T19:10:09.761Z,10.77
2019-04-03T19:12:38.609Z,11.93
2019-04-03T19:15:07.858Z,10.53
2019-04-03T19:17:36.717Z,11.67
2019-04-03T19:20:11.136Z,10.60
2019-04-03T19:22:39.614Z,10.97
2019-04-03T19:25:08.931Z,10.83
2019-04-03T19:27:37.772Z,11.23
2019-04-03T19:30:08.998Z,11.53
2019-04-03T19:32:37.848Z,11.03
2019-04-03T19:35:09.393Z,9.03
2019-04-03T19:37:38.797Z,10.03
2019-04-03T19:40:09.731Z,10.53
2019-04-03T19:42:38.805Z,11.33
2019-04-03T19:45:08.429Z,10.93
2019-04-03T19:47:37.293Z,10.80
2019-04-03T19:50:07.841Z,9.73
2019-04-03T19:52:37.421Z,11.00
2019-04-03T19:55:09.441Z,11.40
2019-04-03T19:57:38.333Z,10.53
2019-04-03T20:00:09.209Z,11.63
2019-04-03T20:02:38.534Z,11.43
2019-04-03T20:05:08.767Z,11.20
2019-04-03T20:07:37.694Z,11.23
2019-04-03T20:10:10.507Z,11.63
2019-04-03T20:12:39.261Z,11.80
2019-04-03T20:15:09.773Z,11.13
2019-04-03T20:17:38.559Z,12.03
2019-04-03T20:20:10.667Z,13.07
2019-04-03T20:22:42.407Z,13.37
2019-04-03T20:25:10.025Z,13.93
2019-04-03T20:27:38.939Z,12.73
2019-04-03T20:30:09.131Z,13.60
2019-04-03T20:32:40.036Z,12.00
2019-04-03T20:35:08.461Z,13.67
2019-04-03T20:37:37.336Z,14.33
2019-04-03T20:40:07.568Z,13.67
2019-04-03T20:42:36.402Z,14.27
2019-04-03T20:45:08.491Z,14.10
2019-04-03T20:47:37.316Z,13.30
2019-04-03T20:50:07.728Z,13.90
2019-04-03T20:52:37.205Z,13.60
2019-04-03T20:55:09.293Z,12.27
2019-04-03T20:57:38.077Z,11.87
2019-04-03T21:00:09.928Z,11.73
2019-04-03T21:02:41.236Z,11.83
2019-04-03T21:05:09.181Z,13.47
2019-04-03T21:07:37.965Z,10.93
2019-04-03T21:10:08.212Z,11.70
2019-04-03T21:12:37.076Z,11.17
2019-04-03T21:15:08.795Z,11.70
2019-04-03T21:17:37.013Z,11.53
2019-04-03T21:20:06.984Z,12.17
2019-04-03T21:22:35.868Z,11.43
2019-04-03T21:25:06.531Z,12.53
2019-04-03T21:27:35.378Z,12.57
2019-04-03T21:30:06.572Z,12.83
2019-04-03T21:32:35.428Z,12.30
2019-04-03T21:35:04.598Z,11.70
2019-04-03T21:37:33.379Z,11.83
2019-04-03T21:40:04.895Z,11.50
2019-04-03T21:42:32.725Z,12.20
2019-04-03T21:45:02.692Z,12.47
2019-04-03T21:47:32.099Z,11.10
2019-04-03T21:50:03.456Z,11.87
2019-04-03T21:52:31.519Z,14.03
2019-04-03T21:55:00.348Z,11.93
2019-04-03T21:57:29.179Z,12.23
2019-04-03T21:59:58.079Z,12.70
2019-04-03T22:02:27.032Z,11.90
2019-04-03T22:04:55.858Z,12.30
2019-04-03T22:07:28.260Z,12.03
2019-04-03T22:09:56.107Z,12.40
2019-04-03T22:12:24.884Z,12.00
2019-04-03T22:14:53.772Z,11.03
2019-04-03T22:17:22.638Z,11.83
2019-04-03T22:19:51.442Z,11.77
2019-04-03T22:22:20.269Z,12.07
2019-04-03T22:24:49.116Z,12.67
2019-04-03T22:27:17.964Z,12.10
2019-04-03T22:29:46.827Z,13.30
2019-04-03T22:32:15.660Z,13.33
2019-04-03T22:34:44.500Z,11.97
2019-04-03T22:37:13.397Z,13.50
2019-04-03T22:39:42.178Z,12.57
2019-04-03T22:42:10.988Z,12.43
2019-04-03T22:44:39.900Z,12.63
2019-04-03T22:47:08.726Z,12.60
2019-04-03T22:49:37.571Z,12.27
2019-04-03T22:52:06.888Z,12.63
2019-04-03T22:54:36.936Z,11.97
2019-04-03T22:57:05.749Z,11.43
2019-04-03T22:59:34.624Z,11.83
2019-04-03T23:02:03.445Z,12.50
2019-04-03T23:04:32.269Z,11.83
2019-04-03T23:07:01.150Z,12.90
2019-04-03T23:09:29.954Z,13.80
2019-04-03T23:11:58.795Z,13.17
2019-04-03T23:14:27.692Z,13.43
2019-04-03T23:16:56.532Z,12.57
2019-04-03T23:19:25.340Z,12.40
2019-04-03T23:21:54.779Z,13.23
2019-04-03T23:24:24.284Z,14.03
2019-04-03T23:26:53.124Z,12.87
2019-04-03T23:29:22.021Z,12.27
2019-04-03T23:31:50.852Z,13.07
2019-04-03T23:34:19.731Z,13.07
2019-04-03T23:36:48.522Z,12.10
2019-04-03T23:39:17.361Z,12.80
2019-04-03T23:41:46.207Z,12.37
2019-04-03T23:44:15.052Z,12.00
2019-04-03T23:46:45.506Z,12.03
2019-04-03T23:49:14.500Z,11.90
2019-04-03T23:51:43.364Z,12.70
2019-04-03T23:54:12.196Z,12.33
2019-04-03T23:56:41.786Z,12.07
2019-04-03T23:59:12.803Z,12.57
